首页
METAR-TAF:

METAR-TAF

机场 :

卡拉奇, 巴基斯坦

真纳国际机场

纬度: 24-54N, 经度: 067-08E, 海拔: 21米

当前天气观测

该预报发布于31分钟前的06:23 UTC
风速15节,风向西
温度 34°C
湿度 34%
气压 1009 hPa
能見度: 7000

METAR: OPKC 250623Z 27015KT 7000 NSC 34/16 Q1009 NOSIG

时间: 11:54 (06:54 UTC)

预报

该预报发布于2小时和54分钟前的04:00 UTC
预报有效从25日的 06点(UTC)到 26日的 12点(UTC)
风速10节,风向西,有时为20节阵风
能見度: 6000
从 25日的 1900点(UTC)
风速10节,风向西
能見度: 6000
短暂存在
从 26日的 01点(UTC)到 26日的 04点(UTC)
风速8节,风向西
能見度: 5000
从 26日的 0600点(UTC)
风速8节,风向西转西南,有时为18节阵风
能見度: 6000

TAF: OPKC 250400Z 2506/2612 26010G20KT 6000 NSC FM251900 27010KT 6000 NSC TEMPO 2601/2604 28008KT 5000 HZ NSC FM260600 24008G18KT 6000 NSC

超过4000个机场的气象观测和天气预报(METAR&TAF报告)。

可查询的气象台以黄色和红色小点在地图上表示。

将鼠标移到小点上方,可查看气象台名称。

然后点击查看天气观测和预报。

如需切换地图:点击带黑十字的绿色按钮放大地图;点击带横线的绿色按钮缩小地图;或者点击绿色箭头查看邻近地区的地图。


METAR-TAF: